createdAt,value
2023-02-07T05:25:11.474Z,103112.11
2023-02-07T05:27:38.574Z,103112.52
2023-02-07T05:30:07.698Z,103117.02
2023-02-07T05:32:53.241Z,103112.52
2023-02-07T05:35:20.925Z,103114.63
2023-02-07T05:37:48.155Z,103118.15
2023-02-07T05:40:16.036Z,103112.36
2023-02-07T05:42:43.379Z,103111.98
2023-02-07T05:45:11.141Z,103112.77
2023-02-07T05:47:38.808Z,103115.36
2023-02-07T05:50:06.881Z,103116.54
2023-02-07T05:52:35.795Z,103112.38
2023-02-07T05:55:04.958Z,103113.91
2023-02-07T05:57:32.408Z,103115.16
2023-02-07T06:00:00.119Z,103110.48
2023-02-07T06:02:27.819Z,103109.23
2023-02-07T06:04:55.400Z,103110.96
2023-02-07T06:07:22.645Z,103115.20
2023-02-07T06:09:57.451Z,103112.23
2023-02-07T06:12:24.847Z,103114.86
2023-02-07T06:14:51.984Z,103117.73
2023-02-07T06:17:26.759Z,103117.64
2023-02-07T06:19:53.963Z,103118.34
2023-02-07T06:22:21.106Z,103122.56
2023-02-07T06:24:48.177Z,103125.50
2023-02-07T06:27:17.772Z,103128.27
2023-02-07T06:29:45.342Z,103126.42
2023-02-07T06:32:12.897Z,103127.17
2023-02-07T06:34:40.860Z,103130.70
2023-02-07T06:37:08.136Z,103128.58
2023-02-07T06:39:35.510Z,103130.25
2023-02-07T06:42:03.946Z,103129.94
2023-02-07T06:44:31.396Z,103133.20
2023-02-07T06:46:58.593Z,103131.83
2023-02-07T06:49:28.670Z,103134.45
2023-02-07T06:51:56.754Z,103129.35
2023-02-07T06:54:24.502Z,103129.42
2023-02-07T06:56:51.967Z,103125.84
2023-02-07T06:59:28.543Z,103120.86
2023-02-07T07:01:59.304Z,103123.82
2023-02-07T07:04:29.597Z,103123.55
2023-02-07T07:06:57.253Z,103120.30
2023-02-07T07:09:24.766Z,103124.72
2023-02-07T07:11:51.978Z,103120.25
2023-02-07T07:14:21.549Z,103122.91
2023-02-07T07:16:50.068Z,103115.25
2023-02-07T07:19:17.713Z,103116.67
2023-02-07T07:21:48.703Z,103114.59
2023-02-07T07:24:17.764Z,103115.20
2023-02-07T07:26:49.829Z,103116.89
2023-02-07T07:29:19.696Z,103111.00
2023-02-07T07:31:47.461Z,103111.52
2023-02-07T07:34:15.582Z,103113.85
2023-02-07T07:36:42.766Z,103118.02
2023-02-07T07:39:13.412Z,103115.19
2023-02-07T07:41:43.321Z,103116.92
2023-02-07T07:44:13.618Z,103113.58
2023-02-07T07:46:41.165Z,103113.96
2023-02-07T07:49:09.261Z,103112.02
2023-02-07T07:51:37.093Z,103111.95
2023-02-07T07:54:07.041Z,103115.30
2023-02-07T07:56:36.811Z,103112.16
2023-02-07T07:59:20.070Z,103109.32
2023-02-07T08:01:53.106Z,103105.58
2023-02-07T08:04:20.556Z,103106.40
2023-02-07T08:06:48.583Z,103100.41
2023-02-07T08:09:16.010Z,103095.71
2023-02-07T08:11:52.504Z,103095.37
2023-02-07T08:14:19.931Z,103094.09
2023-02-07T08:16:47.486Z,103083.91
2023-02-07T08:19:17.601Z,103088.23
2023-02-07T08:21:47.724Z,103087.32
2023-02-07T08:24:16.110Z,103085.48
2023-02-07T08:26:44.478Z,103089.60
2023-02-07T08:29:13.427Z,103086.23
2023-02-07T08:31:44.709Z,103091.20
2023-02-07T08:34:13.365Z,103090.54
2023-02-07T08:36:41.483Z,103093.06
2023-02-07T08:39:09.650Z,103085.76
2023-02-07T08:41:38.133Z,103088.90
2023-02-07T08:44:05.753Z,103089.60
2023-02-07T08:46:34.970Z,103087.81
2023-02-07T08:49:11.050Z,103091.77
2023-02-07T08:51:42.374Z,103093.70
2023-02-07T08:54:22.245Z,103093.91
2023-02-07T08:57:00.287Z,103096.76
2023-02-07T08:59:30.271Z,103084.84
2023-02-07T09:01:58.287Z,103086.49
2023-02-07T09:04:26.677Z,103084.45
2023-02-07T09:06:54.063Z,103080.02
2023-02-07T09:09:21.850Z,103080.80
2023-02-07T09:11:52.159Z,103086.67
2023-02-07T09:14:19.844Z,103079.31
2023-02-07T09:16:47.280Z,103085.34
2023-02-07T09:19:14.842Z,103082.34
2023-02-07T09:21:42.070Z,103086.43
2023-02-07T09:24:09.159Z,103086.84
2023-02-07T09:26:38.536Z,103090.68
2023-02-07T09:29:14.140Z,103084.39
2023-02-07T09:31:44.522Z,103089.73
2023-02-07T09:34:12.186Z,103084.66
2023-02-07T09:36:40.480Z,103080.34
2023-02-07T09:39:10.426Z,103082.75
2023-02-07T09:41:56.982Z,103091.60
2023-02-07T09:44:48.606Z,103073.68
2023-02-07T09:47:27.508Z,103069.11
2023-02-07T09:50:06.040Z,103064.59
2023-02-07T09:52:49.990Z,103065.52
2023-02-07T09:55:23.712Z,103066.07
2023-02-07T09:58:22.275Z,103065.05
2023-02-07T10:01:01.059Z,103058.53
2023-02-07T10:03:31.421Z,103059.16
2023-02-07T10:06:17.879Z,103045.60
2023-02-07T10:08:51.472Z,103046.64
2023-02-07T10:11:26.068Z,103061.98
2023-02-07T10:13:53.293Z,103056.01
2023-02-07T10:16:23.451Z,103053.54
2023-02-07T10:18:57.115Z,103049.66
2023-02-07T10:21:53.442Z,103042.47
2023-02-07T10:24:51.569Z,103046.79
2023-02-07T10:27:32.702Z,103040.13
2023-02-07T10:30:16.368Z,103036.27
2023-02-07T10:32:46.951Z,103032.79
2023-02-07T10:35:39.116Z,103029.20
2023-02-07T10:38:30.981Z,103034.58
2023-02-07T10:41:06.828Z,103031.94
2023-02-07T10:43:35.397Z,103027.83
2023-02-07T10:46:09.068Z,103023.55
2023-02-07T10:48:40.376Z,103030.63
2023-02-07T10:51:30.921Z,103024.48
2023-02-07T10:54:08.192Z,103023.28
2023-02-07T10:56:53.588Z,103026.02
2023-02-07T10:59:38.723Z,103015.48
2023-02-07T11:02:48.311Z,103015.21
2023-02-07T11:05:15.862Z,103008.48
2023-02-07T11:08:02.025Z,103007.46
2023-02-07T11:10:33.605Z,103012.11
2023-02-07T11:13:04.285Z,103011.84
2023-02-07T11:15:31.703Z,103008.02
2023-02-07T11:17:59.409Z,103009.52
2023-02-07T11:20:43.492Z,103008.96
2023-02-07T11:23:15.732Z,103008.92
2023-02-07T11:25:53.064Z,103000.64
2023-02-07T11:28:36.085Z,102999.17
2023-02-07T11:31:09.998Z,103010.67
2023-02-07T11:33:37.973Z,102999.73
2023-02-07T11:36:31.529Z,102995.84
2023-02-07T11:39:00.139Z,102991.88
2023-02-07T11:41:34.504Z,102987.49
2023-02-07T11:44:17.252Z,102986.64
2023-02-07T11:46:54.026Z,102987.60
2023-02-07T11:49:30.370Z,102986.31
2023-02-07T11:52:02.899Z,102979.98
2023-02-07T11:54:37.282Z,102972.52
2023-02-07T11:57:19.401Z,102966.76
2023-02-07T12:00:18.692Z,102968.15
2023-02-07T12:03:08.600Z,102959.01
2023-02-07T12:05:46.940Z,102971.17
2023-02-07T12:08:19.225Z,102969.42
2023-02-07T12:10:51.450Z,102965.96
2023-02-07T12:13:35.504Z,102969.67
2023-02-07T12:16:05.321Z,102963.02
2023-02-07T12:18:42.669Z,102969.42
2023-02-07T12:21:22.261Z,102969.16
2023-02-07T12:24:31.008Z,102967.73
2023-02-07T12:27:16.833Z,102969.42
2023-02-07T12:29:57.796Z,102965.93
2023-02-07T12:32:37.113Z,102969.02
2023-02-07T12:35:11.082Z,102970.08
2023-02-07T12:37:42.575Z,102968.15
2023-02-07T12:40:20.878Z,102960.36
2023-02-07T12:43:11.608Z,102968.04
2023-02-07T12:46:01.981Z,102966.07
2023-02-07T12:48:51.203Z,102964.20
2023-02-07T12:51:41.491Z,102966.31
2023-02-07T12:54:28.068Z,102966.73
2023-02-07T12:57:12.359Z,102963.45
2023-02-07T12:59:58.743Z,102971.97
2023-02-07T13:02:40.244Z,102973.81
2023-02-07T13:05:44.841Z,102969.36
2023-02-07T13:08:52.022Z,102973.38
2023-02-07T13:11:41.306Z,102969.55
2023-02-07T13:14:47.686Z,102966.36
2023-02-07T13:17:37.949Z,102966.70
2023-02-07T13:20:39.366Z,102967.52
2023-02-07T13:23:24.534Z,102967.60
2023-02-07T13:25:57.204Z,102968.86
2023-02-07T13:28:41.550Z,102962.00
2023-02-07T17:44:32.973Z,103144.88
2023-02-07T17:47:06.465Z,103145.81
2023-02-07T17:49:37.287Z,103158.25
2023-02-07T17:52:17.121Z,103163.39
2023-02-07T17:54:47.382Z,103171.39
2023-02-07T17:57:17.995Z,103174.73
2023-02-07T17:59:48.892Z,103183.30
2023-02-07T18:02:35.981Z,103180.78
2023-02-07T18:05:07.542Z,103182.73
2023-02-07T18:07:37.707Z,103182.05
2023-02-07T18:10:18.575Z,103187.89
2023-02-07T18:12:48.631Z,103197.98
2023-02-07T18:15:22.127Z,103204.83
2023-02-07T18:17:53.663Z,103206.05
2023-02-07T18:20:25.901Z,103212.60
2023-02-07T18:23:15.596Z,103214.67
2023-02-07T18:25:54.220Z,103222.40
2023-02-07T18:28:31.082Z,103230.77
2023-02-07T18:31:24.544Z,103233.55
2023-02-07T18:34:00.466Z,103234.77
2023-02-07T18:36:40.182Z,103229.38
2023-02-07T18:39:11.893Z,103238.86
2023-02-07T18:41:45.926Z,103243.41
2023-02-07T18:44:14.907Z,103246.19
2023-02-07T18:46:51.485Z,103247.48
2023-02-07T18:49:28.680Z,103248.62
2023-02-07T18:52:04.088Z,103255.30
2023-02-07T18:54:32.952Z,103262.23
2023-02-07T18:57:05.439Z,103261.81
2023-02-07T18:59:34.977Z,103259.20
2023-02-07T19:02:08.587Z,103263.10
2023-02-07T19:04:37.060Z,103269.21
2023-02-07T19:07:06.701Z,103273.98
2023-02-07T19:09:35.858Z,103276.11
2023-02-07T19:12:05.888Z,103279.95
2023-02-07T19:14:41.175Z,103282.67
2023-02-07T19:17:10.115Z,103291.46
2023-02-07T19:19:39.109Z,103294.23
2023-02-07T19:22:11.180Z,103296.17
2023-02-07T19:24:41.944Z,103298.50
2023-02-07T19:27:10.379Z,103301.52
2023-02-07T19:29:39.177Z,103304.28
2023-02-07T19:32:09.615Z,103313.22
2023-02-07T19:34:38.801Z,103318.66
2023-02-07T19:37:07.996Z,103325.79
2023-02-07T19:39:38.436Z,103326.62
2023-02-07T19:42:10.564Z,103330.45
2023-02-07T19:44:43.043Z,103332.10
2023-02-07T19:47:13.210Z,103336.96
2023-02-07T19:49:43.925Z,103340.73
2023-02-07T19:52:17.206Z,103345.45
2023-02-07T19:54:50.213Z,103345.52
2023-02-07T19:57:24.265Z,103350.45
2023-02-07T19:59:55.977Z,103354.26
2023-02-07T20:02:26.271Z,103359.84
2023-02-07T20:04:54.971Z,103359.60
2023-02-07T20:07:24.671Z,103364.20
2023-02-07T20:09:53.775Z,103368.33
2023-02-07T20:12:22.878Z,103367.66
2023-02-07T20:14:54.939Z,103368.44
2023-02-07T20:17:26.100Z,103375.27
2023-02-07T20:19:57.131Z,103379.73
2023-02-07T20:22:28.234Z,103382.60
2023-02-07T20:24:57.291Z,103384.90
2023-02-07T20:27:25.951Z,103388.98
2023-02-07T20:29:57.101Z,103393.17
2023-02-07T20:32:29.160Z,103394.23
2023-02-07T20:34:57.754Z,103394.11
2023-02-07T20:37:26.533Z,103394.14
2023-02-07T20:39:55.640Z,103397.44
2023-02-07T20:42:30.789Z,103396.34
2023-02-07T20:44:59.548Z,103399.39
2023-02-07T20:47:28.139Z,103401.29
2023-02-07T20:50:00.916Z,103404.58
2023-02-07T20:52:29.912Z,103415.58
2023-02-07T20:54:58.587Z,103418.21
2023-02-07T20:57:31.372Z,103421.50
2023-02-07T20:59:59.871Z,103421.79
2023-02-07T21:02:31.436Z,103425.86
2023-02-07T21:05:00.096Z,103425.41
2023-02-07T21:07:28.840Z,103430.15
2023-02-07T21:09:59.932Z,103428.34
2023-02-07T21:12:28.509Z,103430.67
2023-02-07T21:14:57.726Z,103435.48
2023-02-07T21:17:29.051Z,103437.98
2023-02-07T21:19:57.541Z,103440.11
2023-02-07T21:22:34.503Z,103443.33
2023-02-07T21:25:02.603Z,103442.70
2023-02-07T21:27:31.264Z,103443.61
2023-02-07T21:29:59.848Z,103448.35
2023-02-07T21:32:30.915Z,103448.09
2023-02-07T21:34:59.630Z,103454.90
2023-02-07T21:37:28.158Z,103460.61
2023-02-07T21:39:57.056Z,103459.89
2023-02-07T21:42:25.530Z,103463.83
2023-02-07T21:44:53.980Z,103469.89
2023-02-07T21:47:22.699Z,103471.34
2023-02-07T21:49:51.487Z,103476.20
2023-02-07T21:52:20.380Z,103477.20
2023-02-07T21:54:52.242Z,103479.70
2023-02-07T21:57:31.651Z,103484.02
2023-02-07T22:00:03.230Z,103489.16
2023-02-07T22:02:34.933Z,103492.89
2023-02-07T22:05:03.626Z,103495.01
2023-02-07T22:07:32.461Z,103496.16
2023-02-07T22:10:03.811Z,103501.27
2023-02-07T22:12:34.951Z,103504.23
2023-02-07T22:15:03.735Z,103502.92
2023-02-07T22:17:32.240Z,103505.06
2023-02-07T22:20:04.616Z,103504.47
2023-02-07T22:22:33.179Z,103507.52
2023-02-07T22:25:01.766Z,103507.38
2023-02-07T22:27:31.280Z,103505.14
2023-02-07T22:30:00.361Z,103509.31
2023-02-07T22:32:29.354Z,103513.66
2023-02-07T22:34:58.267Z,103511.95
2023-02-07T22:37:26.921Z,103509.08
2023-02-07T22:39:55.813Z,103514.07
2023-02-07T22:42:24.627Z,103510.55
2023-02-07T22:44:55.948Z,103512.18
2023-02-07T22:47:24.433Z,103511.86
2023-02-07T22:49:53.521Z,103513.23
2023-02-07T22:52:22.005Z,103516.77
2023-02-07T22:54:52.741Z,103514.30
2023-02-07T22:57:21.317Z,103518.38
2023-02-07T22:59:49.907Z,103521.17
2023-02-07T23:02:20.758Z,103522.87
2023-02-07T23:04:49.527Z,103523.61
2023-02-07T23:07:17.998Z,103523.27
2023-02-07T23:09:48.640Z,103526.22
2023-02-07T23:12:25.925Z,103525.91
2023-02-07T23:14:54.417Z,103526.66
2023-02-07T23:17:22.916Z,103535.36
2023-02-07T23:19:59.040Z,103537.61
2023-02-07T23:22:27.858Z,103544.42
2023-02-07T23:24:56.832Z,103547.63
2023-02-07T23:27:25.418Z,103547.79
2023-02-07T23:29:53.998Z,103554.55
2023-02-07T23:32:25.344Z,103559.11
2023-02-07T23:34:53.831Z,103561.15
2023-02-07T23:37:23.059Z,103563.79
2023-02-07T23:39:53.501Z,103565.91
2023-02-07T23:42:22.391Z,103562.51
2023-02-07T23:44:53.384Z,103564.91
2023-02-07T23:47:21.970Z,103567.48
2023-02-07T23:49:50.454Z,103567.19
2023-02-07T23:52:18.999Z,103570.90
2023-02-07T23:54:47.722Z,103574.46
2023-02-07T23:57:16.206Z,103573.77
2023-02-07T23:59:44.795Z,103577.04
